Time;durP1;ratioP1;P1;durP2;ratioP2;P2;SDS_P1;SDS_P2;PMS_P1;PMS_P2;Temp;Humidity;BMP_temperature;BMP_pressure;BME280_temperature;BME280_humidity;BME280_pressure;Samples;Min_cycle;Max_cycle;Signal;HPM_P1;HPM_P2
2022/07/28 00:02:08;;;;;;;15.52;9.93;;;;;;;;;;5013316;28;20037;-63
2022/07/28 00:04:34;;;;;;;16.65;10.57;;;;;;;;;;5013258;28;20030;-62
2022/07/28 00:07:01;;;;;;;19.42;10.50;;;;;;;;;;5013071;28;20833;-62
2022/07/28 00:09:27;;;;;;;15.40;10.43;;;;;;;;;;5012917;28;20490;-62
2022/07/28 00:11:53;;;;;;;17.73;11.05;;;;;;;;;;5013266;28;20033;-62
2022/07/28 00:14:20;;;;;;;15.50;10.15;;;;;;;;;;5011630;28;20017;-63
2022/07/28 00:16:46;;;;;;;16.15;10.40;;;;;;;;;;5012728;28;20037;-62
2022/07/28 00:19:12;;;;;;;17.92;10.77;;;;;;;;;;5011785;28;20452;-62
2022/07/28 00:21:38;;;;;;;16.55;9.82;;;;;;;;;;5011610;28;20027;-63
2022/07/28 00:24:04;;;;;;;16.98;10.30;;;;;;;;;;5012818;28;20079;-62
2022/07/28 00:26:30;;;;;;;16.52;10.15;;;;;;;;;;5012567;28;20396;-62
2022/07/28 00:28:56;;;;;;;16.15;10.30;;;;;;;;;;5012115;28;20026;-62
2022/07/28 00:31:22;;;;;;;17.02;10.30;;;;;;;;;;5012736;28;20049;-62
2022/07/28 00:33:48;;;;;;;18.45;10.35;;;;;;;;;;5012921;28;20030;-63
2022/07/28 00:36:14;;;;;;;16.52;10.23;;;;;;;;;;5012698;28;20109;-62
2022/07/28 00:38:40;;;;;;;16.80;10.70;;;;;;;;;;5012449;28;20037;-62
2022/07/28 00:41:09;;;;;;;15.85;10.43;;;;;;;;;;5012596;28;20040;-62
2022/07/28 00:43:35;;;;;;;15.48;10.57;;;;;;;;;;5012871;28;20029;-62
2022/07/28 00:46:01;;;;;;;16.65;10.60;;;;;;;;;;5012650;28;20114;-62
2022/07/28 00:48:27;;;;;;;16.95;10.85;;;;;;;;;;5012442;28;20105;-62
2022/07/28 00:50:54;;;;;;;16.90;10.80;;;;;;;;;;5011254;28;20084;-61
2022/07/28 00:53:20;;;;;;;16.17;10.32;;;;;;;;;;5011665;28;20495;-62
2022/07/28 00:55:46;;;;;;;15.63;10.90;;;;;;;;;;5012196;28;20037;-62
2022/07/28 00:58:12;;;;;;;15.40;10.50;;;;;;;;;;5011901;28;20498;-62
2022/07/28 01:00:38;;;;;;;16.23;10.30;;;;;;;;;;5012125;28;20030;-62
2022/07/28 01:03:05;;;;;;;16.25;10.60;;;;;;;;;;5011089;28;20394;-61
2022/07/28 01:05:35;;;;;;;16.25;10.45;;;;;;;;;;5012325;28;20033;-62
2022/07/28 01:08:03;;;;;;;16.48;10.73;;;;;;;;;;5019491;28;20036;-63
2022/07/28 01:10:38;;;;;;;17.35;10.40;;;;;;;;;;5024738;28;20449;-63
2022/07/28 01:13:04;;;;;;;17.20;10.15;;;;;;;;;;5021798;28;20387;-59
2022/07/28 01:15:30;;;;;;;18.08;10.77;;;;;;;;;;5015793;28;20060;-62
2022/07/28 01:17:56;;;;;;;16.85;10.70;;;;;;;;;;5011863;28;20490;-61
2022/07/28 01:20:30;;;;;;;18.02;10.60;;;;;;;;;;5012136;28;20049;-62
2022/07/28 01:23:05;;;;;;;16.25;11.00;;;;;;;;;;5012298;28;20425;-63
2022/07/28 01:25:34;;;;;;;17.00;10.45;;;;;;;;;;5012381;28;20052;-62
2022/07/28 01:28:06;;;;;;;18.25;10.80;;;;;;;;;;5011773;28;20026;-62
2022/07/28 01:30:40;;;;;;;16.95;10.55;;;;;;;;;;5010897;28;20545;-62
2022/07/28 01:33:15;;;;;;;17.73;10.63;;;;;;;;;;5012069;28;20113;-62
2022/07/28 01:36:04;;;;;;;15.63;10.82;;;;;;;;;;5012115;28;20100;-62
2022/07/28 01:38:32;;;;;;;17.25;10.57;;;;;;;;;;4992505;28;20041;-63
2022/07/28 01:40:59;;;;;;;16.27;10.15;;;;;;;;;;5011952;28;20405;-63
2022/07/28 01:43:26;;;;;;;18.20;10.57;;;;;;;;;;5011941;28;20490;-62
2022/07/28 01:45:54;;;;;;;17.52;10.48;;;;;;;;;;5011938;28;20026;-63
2022/07/28 01:48:20;;;;;;;16.83;10.45;;;;;;;;;;5011889;28;20390;-63
2022/07/28 01:50:48;;;;;;;15.48;10.07;;;;;;;;;;5010652;28;20037;-60
2022/07/28 01:53:16;;;;;;;17.08;10.88;;;;;;;;;;5011859;28;20183;-62
2022/07/28 01:55:45;;;;;;;16.47;10.00;;;;;;;;;;5012833;28;20030;-61
2022/07/28 01:58:16;;;;;;;15.68;10.13;;;;;;;;;;5011700;28;20665;-62
2022/07/28 02:00:43;;;;;;;18.67;10.38;;;;;;;;;;5011908;28;20029;-63
2022/07/28 02:03:10;;;;;;;15.88;10.50;;;;;;;;;;5012148;28;20032;-62
2022/07/28 02:05:37;;;;;;;17.33;10.40;;;;;;;;;;5015399;28;20018;-62
2022/07/28 02:08:04;;;;;;;16.42;10.13;;;;;;;;;;5014972;28;20026;-62
2022/07/28 02:10:31;;;;;;;18.33;11.23;;;;;;;;;;5014185;28;20029;-62
2022/07/28 02:12:59;;;;;;;17.60;10.43;;;;;;;;;;5015375;28;20042;-63
2022/07/28 02:15:26;;;;;;;16.27;10.40;;;;;;;;;;5015145;28;20056;-62
2022/07/28 02:17:52;;;;;;;16.65;11.45;;;;;;;;;;5015062;28;20022;-63
2022/07/28 02:20:19;;;;;;;16.48;10.38;;;;;;;;;;5013852;28;20037;-62
2022/07/28 02:22:45;;;;;;;22.10;10.90;;;;;;;;;;5015269;28;20052;-62
2022/07/28 02:25:11;;;;;;;18.60;10.38;;;;;;;;;;5014948;28;20029;-62
2022/07/28 02:27:40;;;;;;;17.45;10.38;;;;;;;;;;5013461;28;20069;-62
2022/07/28 02:30:09;;;;;;;17.05;10.40;;;;;;;;;;5014968;28;20025;-62
2022/07/28 02:33:04;;;;;;;16.73;10.55;;;;;;;;;;5014995;28;20028;-62
2022/07/28 02:35:46;;;;;;;17.75;10.30;;;;;;;;;;5005352;28;20054;-62
2022/07/28 02:38:14;;;;;;;15.07;10.52;;;;;;;;;;5014816;28;20052;-62
2022/07/28 02:40:40;;;;;;;16.25;10.57;;;;;;;;;;5014935;28;20022;-62
2022/07/28 02:43:09;;;;;;;17.35;10.70;;;;;;;;;;5014773;28;20033;-63
2022/07/28 02:45:37;;;;;;;21.77;11.05;;;;;;;;;;5013445;28;20060;-62
2022/07/28 02:48:06;;;;;;;17.13;10.60;;;;;;;;;;5014439;28;20033;-61
2022/07/28 02:50:32;;;;;;;16.63;10.38;;;;;;;;;;5013484;28;20037;-61
2022/07/28 02:53:01;;;;;;;15.75;10.45;;;;;;;;;;5014578;28;20079;-62
2022/07/28 02:55:28;;;;;;;16.60;10.43;;;;;;;;;;5014145;28;20034;-62
2022/07/28 02:57:55;;;;;;;16.98;10.93;;;;;;;;;;5013998;28;20107;-61
2022/07/28 03:00:22;;;;;;;16.35;10.23;;;;;;;;;;5014546;28;20105;-62
2022/07/28 03:02:48;;;;;;;15.63;10.60;;;;;;;;;;5014503;28;20446;-62
2022/07/28 03:05:14;;;;;;;17.98;11.13;;;;;;;;;;5014138;28;20084;-62
2022/07/28 03:07:41;;;;;;;15.98;10.38;;;;;;;;;;5014009;28;20379;-62
2022/07/28 03:10:08;;;;;;;19.73;10.70;;;;;;;;;;5014115;28;20037;-62
2022/07/28 03:12:34;;;;;;;17.33;10.50;;;;;;;;;;5014161;28;20018;-62
2022/07/28 03:15:00;;;;;;;19.10;10.95;;;;;;;;;;5013381;28;20367;-62
2022/07/28 03:17:26;;;;;;;18.27;10.80;;;;;;;;;;5014022;28;20026;-62
2022/07/28 03:19:52;;;;;;;16.67;10.90;;;;;;;;;;5014212;28;20032;-62
2022/07/28 03:22:18;;;;;;;17.95;10.52;;;;;;;;;;5013889;28;20393;-62
2022/07/28 03:24:47;;;;;;;18.40;11.65;;;;;;;;;;5013870;28;20022;-62
2022/07/28 03:27:29;;;;;;;19.83;11.02;;;;;;;;;;5013450;28;20033;-62
2022/07/28 03:29:58;;;;;;;17.65;10.70;;;;;;;;;;5012332;28;20494;-62
2022/07/28 03:32:26;;;;;;;18.23;10.80;;;;;;;;;;5012593;28;20133;-62
2022/07/28 03:34:52;;;;;;;17.13;10.67;;;;;;;;;;5013737;28;20104;-62
2022/07/28 03:37:23;;;;;;;19.15;11.07;;;;;;;;;;5012095;28;20398;-62
2022/07/28 03:39:50;;;;;;;16.05;10.48;;;;;;;;;;5013412;28;20437;-63
2022/07/28 03:42:17;;;;;;;17.58;10.35;;;;;;;;;;5013525;28;20105;-62
2022/07/28 03:44:44;;;;;;;17.63;10.88;;;;;;;;;;5013322;28;20160;-62
2022/07/28 03:47:10;;;;;;;17.25;10.32;;;;;;;;;;5013067;28;20037;-62
2022/07/28 03:49:36;;;;;;;18.25;10.98;;;;;;;;;;5013022;28;20047;-62
2022/07/28 03:52:02;;;;;;;15.85;10.63;;;;;;;;;;5011824;28;20028;-62
2022/07/28 03:54:28;;;;;;;16.45;10.82;;;;;;;;;;5013269;28;20097;-62
2022/07/28 03:56:54;;;;;;;19.92;11.13;;;;;;;;;;5012971;28;20565;-62
2022/07/28 03:59:20;;;;;;;17.75;11.30;;;;;;;;;;5013029;28;20026;-62
2022/07/28 04:01:46;;;;;;;17.90;10.82;;;;;;;;;;5013179;28;20025;-62
2022/07/28 04:04:12;;;;;;;16.02;10.93;;;;;;;;;;5013161;28;20026;-62
2022/07/28 04:06:38;;;;;;;17.85;11.45;;;;;;;;;;5012988;28;20394;-62
2022/07/28 04:09:04;;;;;;;16.88;11.45;;;;;;;;;;5012658;28;20064;-62
2022/07/28 04:11:30;;;;;;;18.77;11.75;;;;;;;;;;5011670;28;20033;-62
2022/07/28 04:13:56;;;;;;;16.15;11.15;;;;;;;;;;5013083;28;20026;-62
2022/07/28 04:16:23;;;;;;;18.58;11.50;;;;;;;;;;5022855;28;20048;-62
2022/07/28 04:18:49;;;;;;;18.67;11.10;;;;;;;;;;5026180;28;20529;-61
2022/07/28 04:21:15;;;;;;;16.00;11.32;;;;;;;;;;5023280;28;20037;-63
2022/07/28 04:23:41;;;;;;;17.08;11.30;;;;;;;;;;5012993;28;20022;-62
2022/07/28 04:26:07;;;;;;;16.08;11.23;;;;;;;;;;5012912;28;20460;-62
2022/07/28 04:28:33;;;;;;;16.67;11.65;;;;;;;;;;5011403;28;20076;-61
2022/07/28 04:30:59;;;;;;;20.52;11.80;;;;;;;;;;5012866;28;20018;-62
2022/07/28 04:33:25;;;;;;;17.95;11.98;;;;;;;;;;5012895;28;20060;-62
2022/07/28 04:35:51;;;;;;;22.00;12.38;;;;;;;;;;5012512;28;20030;-62
2022/07/28 04:38:19;;;;;;;18.08;11.75;;;;;;;;;;5012557;28;20026;-62
2022/07/28 04:40:45;;;;;;;22.75;12.00;;;;;;;;;;5012493;28;20486;-61
2022/07/28 04:43:11;;;;;;;17.73;11.57;;;;;;;;;;5012399;28;20053;-62
2022/07/28 04:45:37;;;;;;;20.77;12.30;;;;;;;;;;5012515;28;20060;-62
2022/07/28 04:48:03;;;;;;;20.15;12.18;;;;;;;;;;5012080;28;20083;-62
2022/07/28 04:50:29;;;;;;;18.15;12.40;;;;;;;;;;5012385;28;20033;-62
2022/07/28 04:52:55;;;;;;;19.17;11.93;;;;;;;;;;5012566;28;20068;-62
2022/07/28 04:55:21;;;;;;;20.27;11.82;;;;;;;;;;5012287;28;20109;-63
2022/07/28 04:57:48;;;;;;;18.48;11.60;;;;;;;;;;5012079;28;20490;-61
2022/07/28 05:00:14;;;;;;;20.55;12.00;;;;;;;;;;5012484;28;20013;-59
2022/07/28 05:02:41;;;;;;;19.08;11.60;;;;;;;;;;5010942;28;20026;-62
2022/07/28 05:05:07;;;;;;;19.20;11.60;;;;;;;;;;5010715;28;20772;-64
2022/07/28 05:07:33;;;;;;;20.70;11.70;;;;;;;;;;5011971;28;20390;-62
2022/07/28 05:09:59;;;;;;;17.67;11.50;;;;;;;;;;5011964;28;20037;-62
2022/07/28 05:12:25;;;;;;;20.65;12.52;;;;;;;;;;5011688;28;20029;-62
2022/07/28 05:14:51;;;;;;;16.45;11.43;;;;;;;;;;5011956;28;20080;-62
2022/07/28 05:17:17;;;;;;;19.85;11.95;;;;;;;;;;5011352;28;20080;-64
2022/07/28 05:19:43;;;;;;;19.58;11.70;;;;;;;;;;5012095;28;20037;-62
2022/07/28 05:22:09;;;;;;;20.15;12.38;;;;;;;;;;5011870;28;20030;-62
2022/07/28 05:24:35;;;;;;;18.83;12.45;;;;;;;;;;5011722;28;20490;-62
2022/07/28 05:27:02;;;;;;;16.63;11.82;;;;;;;;;;5011609;28;20037;-62
2022/07/28 05:29:28;;;;;;;18.08;11.40;;;;;;;;;;5011020;28;20463;-62
2022/07/28 05:31:54;;;;;;;16.77;11.63;;;;;;;;;;5011733;28;20064;-62
2022/07/28 05:34:20;;;;;;;18.73;11.50;;;;;;;;;;5011627;28;20022;-62
2022/07/28 05:36:46;;;;;;;20.80;12.13;;;;;;;;;;5010434;28;20072;-62
2022/07/28 05:39:12;;;;;;;18.50;11.90;;;;;;;;;;5013643;28;20487;-61
2022/07/28 05:41:38;;;;;;;22.13;14.90;;;;;;;;;;5015634;28;20041;-62
2022/07/28 05:44:04;;;;;;;17.85;12.38;;;;;;;;;;5015677;28;20022;-62
2022/07/28 05:46:30;;;;;;;18.40;11.70;;;;;;;;;;5015568;28;20025;-63
2022/07/28 05:48:56;;;;;;;17.30;11.73;;;;;;;;;;5015228;28;20657;-62
2022/07/28 05:51:22;;;;;;;18.05;12.10;;;;;;;;;;5013945;28;20025;-62
2022/07/28 05:53:48;;;;;;;16.65;12.50;;;;;;;;;;5015383;28;20034;-62
2022/07/28 05:56:14;;;;;;;17.30;12.07;;;;;;;;;;5015271;28;20650;-62
2022/07/28 05:58:40;;;;;;;16.88;11.38;;;;;;;;;;5015213;28;20032;-62
2022/07/28 06:01:06;;;;;;;16.35;11.80;;;;;;;;;;5014197;28;20030;-63
2022/07/28 06:03:33;;;;;;;15.98;11.80;;;;;;;;;;5015111;28;20489;-62
2022/07/28 06:05:59;;;;;;;18.95;11.93;;;;;;;;;;5015235;28;20363;-62
2022/07/28 06:08:25;;;;;;;17.95;12.15;;;;;;;;;;5013475;28;20036;-62
2022/07/28 06:10:57;;;;;;;17.77;11.88;;;;;;;;;;5013828;28;20129;-63
2022/07/28 06:13:24;;;;;;;17.90;11.95;;;;;;;;;;5014998;28;20093;-63
2022/07/28 06:15:51;;;;;;;16.48;11.77;;;;;;;;;;5014973;28;20026;-61
2022/07/28 06:18:17;;;;;;;24.15;17.73;;;;;;;;;;5013397;28;20026;-63
2022/07/28 06:20:43;;;;;;;21.48;12.30;;;;;;;;;;5015048;28;20030;-61
2022/07/28 06:23:10;;;;;;;17.67;11.90;;;;;;;;;;5014976;28;20057;-61
2022/07/28 06:25:36;;;;;;;21.80;14.68;;;;;;;;;;5017945;28;20025;-61
2022/07/28 06:28:02;;;;;;;17.65;12.88;;;;;;;;;;5028506;28;20026;-60
2022/07/28 06:30:28;;;;;;;20.42;12.25;;;;;;;;;;5019809;28;20033;-61
2022/07/28 06:32:54;;;;;;;17.60;12.15;;;;;;;;;;5014895;28;20022;-60
2022/07/28 06:35:21;;;;;;;19.65;13.20;;;;;;;;;;5010532;28;20053;-60
2022/07/28 06:37:47;;;;;;;18.10;12.82;;;;;;;;;;4995246;28;20029;-60
2022/07/28 06:40:14;;;;;;;20.98;13.48;;;;;;;;;;5009507;28;20026;-60
2022/07/28 06:42:41;;;;;;;19.13;12.10;;;;;;;;;;5014548;28;20037;-61
2022/07/28 06:45:07;;;;;;;19.20;14.40;;;;;;;;;;4994851;28;20023;-61
2022/07/28 06:47:33;;;;;;;19.48;12.90;;;;;;;;;;4994749;28;20023;-61
2022/07/28 06:49:59;;;;;;;16.60;12.00;;;;;;;;;;4993355;28;20061;-61
2022/07/28 06:52:26;;;;;;;18.88;12.50;;;;;;;;;;5003980;28;20022;-62
2022/07/28 06:54:52;;;;;;;19.55;12.50;;;;;;;;;;5013048;28;20080;-60
2022/07/28 06:57:21;;;;;;;18.77;13.90;;;;;;;;;;5013701;28;20084;-60
2022/07/28 06:59:48;;;;;;;18.50;12.00;;;;;;;;;;5014264;28;20494;-60
2022/07/28 07:02:14;;;;;;;26.15;14.65;;;;;;;;;;5014202;28;20120;-60
2022/07/28 07:04:40;;;;;;;16.58;12.00;;;;;;;;;;5014496;28;20109;-59
2022/07/28 07:07:06;;;;;;;17.85;12.65;;;;;;;;;;5014164;28;20501;-62
2022/07/28 07:09:32;;;;;;;18.48;13.00;;;;;;;;;;5013910;28;20030;-62
2022/07/28 07:11:58;;;;;;;21.98;14.40;;;;;;;;;;5014213;28;20030;-62
2022/07/28 07:14:25;;;;;;;17.05;12.50;;;;;;;;;;5013952;28;20037;-61
2022/07/28 07:16:52;;;;;;;20.85;17.10;;;;;;;;;;5013817;28;20109;-62
2022/07/28 07:19:19;;;;;;;19.65;12.13;;;;;;;;;;5012542;28;20029;-62
2022/07/28 07:21:45;;;;;;;17.58;12.00;;;;;;;;;;5013919;28;20042;-62
2022/07/28 07:24:11;;;;;;;20.05;12.25;;;;;;;;;;5013684;28;20030;-61
2022/07/28 07:26:37;;;;;;;19.52;12.32;;;;;;;;;;5013601;28;20041;-60
2022/07/28 07:29:04;;;;;;;17.42;12.10;;;;;;;;;;5013420;28;20034;-62
2022/07/28 07:31:32;;;;;;;16.40;11.52;;;;;;;;;;5013738;28;20072;-62
2022/07/28 07:33:57;;;;;;;20.35;11.88;;;;;;;;;;5013449;28;20025;-62
2022/07/28 07:36:23;;;;;;;17.58;12.15;;;;;;;;;;5013502;28;20076;-63
2022/07/28 07:38:49;;;;;;;16.95;12.20;;;;;;;;;;5013331;28;20347;-62
2022/07/28 07:41:17;;;;;;;16.35;11.68;;;;;;;;;;5013632;28;20053;-62
2022/07/28 07:43:43;;;;;;;18.05;11.90;;;;;;;;;;5013813;28;20030;-62
2022/07/28 07:46:09;;;;;;;17.13;11.57;;;;;;;;;;5013468;28;20079;-62
2022/07/28 07:48:35;;;;;;;21.90;11.90;;;;;;;;;;5012932;28;20433;-59
2022/07/28 07:51:01;;;;;;;16.88;11.52;;;;;;;;;;5011844;28;20063;-61
2022/07/28 07:53:27;;;;;;;18.08;11.98;;;;;;;;;;5013019;28;20165;-61
2022/07/28 07:55:53;;;;;;;17.58;13.25;;;;;;;;;;5012942;28;20089;-62
2022/07/28 07:58:19;;;;;;;19.77;15.30;;;;;;;;;;5012671;28;20076;-61
2022/07/28 08:00:45;;;;;;;18.55;12.27;;;;;;;;;;5013034;28;20065;-62
2022/07/28 08:03:11;;;;;;;18.25;12.63;;;;;;;;;;5011557;28;20112;-62
2022/07/28 08:05:38;;;;;;;21.40;13.20;;;;;;;;;;5013169;28;20461;-62
2022/07/28 08:08:04;;;;;;;19.17;12.57;;;;;;;;;;5011421;28;20165;-60
2022/07/28 08:10:30;;;;;;;19.73;13.90;;;;;;;;;;5009736;28;20038;-62
2022/07/28 08:12:56;;;;;;;22.15;16.55;;;;;;;;;;4995176;28;20113;-64
2022/07/28 08:15:22;;;;;;;16.02;11.90;;;;;;;;;;4993186;28;20109;-64
2022/07/28 08:17:48;;;;;;;18.75;12.38;;;;;;;;;;4993010;28;20045;-65
2022/07/28 08:20:14;;;;;;;16.15;11.55;;;;;;;;;;4991831;28;20023;-64
2022/07/28 08:22:47;;;;;;;16.77;12.48;;;;;;;;;;4993053;28;20105;-65
2022/07/28 08:25:13;;;;;;;18.00;12.68;;;;;;;;;;4992675;28;20106;-65
2022/07/28 08:27:39;;;;;;;16.38;11.93;;;;;;;;;;4992934;28;20022;-65
2022/07/28 08:30:06;;;;;;;17.67;12.90;;;;;;;;;;4993136;28;20033;-65
2022/07/28 08:32:32;;;;;;;19.05;13.35;;;;;;;;;;4993074;28;20391;-66
2022/07/28 08:34:58;;;;;;;18.25;12.02;;;;;;;;;;4992825;28;20022;-66
2022/07/28 08:37:24;;;;;;;16.92;12.77;;;;;;;;;;4993121;28;20018;-65
2022/07/28 08:39:50;;;;;;;18.27;12.45;;;;;;;;;;4993282;28;20113;-66
2022/07/28 08:42:25;;;;;;;23.48;12.85;;;;;;;;;;4995823;28;20050;-65
2022/07/28 08:44:52;;;;;;;21.67;13.43;;;;;;;;;;4995289;28;20030;-66
2022/07/28 08:47:19;;;;;;;17.63;11.93;;;;;;;;;;4992851;28;20026;-66
2022/07/28 08:49:46;;;;;;;17.05;12.70;;;;;;;;;;4992849;28;20023;-66
2022/07/28 08:52:13;;;;;;;17.65;11.60;;;;;;;;;;4992828;28;20088;-66
2022/07/28 08:54:46;;;;;;;21.67;12.00;;;;;;;;;;4992434;28;20018;-66
2022/07/28 08:57:32;;;;;;;16.05;11.90;;;;;;;;;;4990842;28;20034;-65
2022/07/28 08:59:58;;;;;;;17.55;12.00;;;;;;;;;;4992466;28;20038;-65
2022/07/28 09:02:25;;;;;;;16.02;11.63;;;;;;;;;;4992307;28;20030;-67
2022/07/28 09:04:52;;;;;;;20.75;15.38;;;;;;;;;;4991066;28;20030;-66
2022/07/28 09:07:18;;;;;;;18.33;13.98;;;;;;;;;;4990795;28;20510;-67
2022/07/28 09:09:47;;;;;;;20.17;14.68;;;;;;;;;;5005599;28;20085;-65
2022/07/28 09:12:13;;;;;;;20.00;12.25;;;;;;;;;;5012189;28;20030;-66
2022/07/28 09:14:39;;;;;;;19.08;13.60;;;;;;;;;;5011204;28;20022;-65
2022/07/28 09:17:05;;;;;;;18.73;12.13;;;;;;;;;;5011837;28;20033;-66
2022/07/28 09:19:32;;;;;;;17.55;12.40;;;;;;;;;;5011604;28;20118;-65
2022/07/28 09:21:58;;;;;;;18.60;13.15;;;;;;;;;;5012277;28;20437;-67
2022/07/28 09:24:33;;;;;;;17.13;13.10;;;;;;;;;;5011851;28;20108;-65
2022/07/28 09:27:07;;;;;;;19.73;13.20;;;;;;;;;;5010741;28;20026;-66
2022/07/28 09:29:33;;;;;;;17.63;12.65;;;;;;;;;;5011655;28;20022;-67
2022/07/28 09:31:59;;;;;;;16.88;12.70;;;;;;;;;;5011574;28;20168;-66
2022/07/28 09:34:25;;;;;;;16.50;12.40;;;;;;;;;;5011904;28;20402;-65
2022/07/28 09:36:51;;;;;;;16.35;12.77;;;;;;;;;;4998722;28;20101;-66
2022/07/28 09:39:28;;;;;;;18.98;12.27;;;;;;;;;;4990565;28;20376;-66
2022/07/28 09:41:55;;;;;;;17.70;13.63;;;;;;;;;;4991909;28;20026;-66
2022/07/28 09:44:22;;;;;;;18.10;12.05;;;;;;;;;;4991976;28;20022;-63
2022/07/28 09:46:48;;;;;;;19.40;13.57;;;;;;;;;;4991750;28;20027;-66
2022/07/28 09:49:14;;;;;;;18.33;12.45;;;;;;;;;;4991610;28;20541;-66
2022/07/28 09:51:40;;;;;;;17.10;13.32;;;;;;;;;;4991968;28;20089;-66
2022/07/28 09:54:10;;;;;;;15.68;12.27;;;;;;;;;;4992381;28;20467;-66
2022/07/28 09:56:38;;;;;;;22.70;13.65;;;;;;;;;;4992133;28;20049;-66
2022/07/28 09:59:04;;;;;;;19.30;12.60;;;;;;;;;;4992051;28;20105;-65
2022/07/28 10:01:31;;;;;;;17.02;12.82;;;;;;;;;;4992541;28;20026;-66
2022/07/28 10:03:58;;;;;;;17.20;12.35;;;;;;;;;;4992397;28;20038;-66
2022/07/28 10:06:24;;;;;;;18.10;12.88;;;;;;;;;;4992447;28;20027;-66
2022/07/28 10:08:51;;;;;;;19.42;14.02;;;;;;;;;;4992029;28;20026;-65
2022/07/28 10:11:20;;;;;;;18.70;12.70;;;;;;;;;;4992435;28;20027;-66
2022/07/28 10:13:53;;;;;;;18.25;13.30;;;;;;;;;;4992374;28;20022;-65
2022/07/28 10:16:20;;;;;;;19.35;13.15;;;;;;;;;;4990536;28;20035;-63
2022/07/28 10:18:46;;;;;;;17.48;12.82;;;;;;;;;;4992028;28;20034;-63
2022/07/28 10:21:14;;;;;;;18.90;13.07;;;;;;;;;;4992006;28;20033;-63
2022/07/28 10:23:41;;;;;;;18.92;13.18;;;;;;;;;;4991527;28;20154;-61
2022/07/28 10:26:10;;;;;;;16.90;13.10;;;;;;;;;;4994947;28;20434;-63
2022/07/28 10:28:37;;;;;;;19.70;13.02;;;;;;;;;;4995456;28;20558;-63
2022/07/28 10:31:04;;;;;;;18.80;13.15;;;;;;;;;;4995251;28;20025;-63
2022/07/28 10:33:32;;;;;;;17.85;13.25;;;;;;;;;;4995584;28;20049;-63
2022/07/28 10:35:58;;;;;;;18.02;13.38;;;;;;;;;;5000641;28;20029;-63
2022/07/28 10:38:29;;;;;;;18.10;13.95;;;;;;;;;;5014489;28;20509;-64
2022/07/28 10:40:58;;;;;;;17.45;13.00;;;;;;;;;;5014882;28;20076;-63
2022/07/28 10:43:25;;;;;;;18.08;13.27;;;;;;;;;;5015014;28;20029;-63
2022/07/28 10:45:52;;;;;;;19.50;13.27;;;;;;;;;;5014195;28;20030;-64
2022/07/28 10:48:20;;;;;;;17.58;12.98;;;;;;;;;;5014750;28;20032;-64
2022/07/28 10:50:46;;;;;;;18.10;13.68;;;;;;;;;;5014414;28;20049;-62
2022/07/28 10:53:13;;;;;;;17.48;13.35;;;;;;;;;;5014869;28;20482;-61
2022/07/28 10:55:48;;;;;;;17.23;12.90;;;;;;;;;;5014199;28;20033;-61
2022/07/28 10:58:30;;;;;;;16.90;13.05;;;;;;;;;;5014178;28;20034;-63
2022/07/28 11:00:56;;;;;;;17.95;13.27;;;;;;;;;;5015056;28;20076;-59
2022/07/28 11:03:38;;;;;;;16.98;13.00;;;;;;;;;;5019518;28;20026;-61
2022/07/28 11:06:23;;;;;;;17.67;13.43;;;;;;;;;;5016017;28;20038;-64
2022/07/28 11:08:51;;;;;;;18.23;13.57;;;;;;;;;;5014267;28;20055;-62
2022/07/28 11:11:37;;;;;;;18.08;13.73;;;;;;;;;;5014323;28;20029;-64
2022/07/28 11:14:21;;;;;;;16.95;13.13;;;;;;;;;;5014222;28;20030;-64
2022/07/28 11:16:48;;;;;;;19.65;13.63;;;;;;;;;;5013877;28;20037;-64
2022/07/28 11:19:15;;;;;;;16.83;12.82;;;;;;;;;;5014348;28;20372;-61
2022/07/28 11:22:01;;;;;;;16.00;13.20;;;;;;;;;;5014209;28;20108;-63
2022/07/28 11:24:47;;;;;;;17.35;13.48;;;;;;;;;;5010779;28;20410;-64
2022/07/28 11:27:13;;;;;;;16.23;13.20;;;;;;;;;;5014061;28;20029;-62
2022/07/28 11:29:46;;;;;;;16.13;13.15;;;;;;;;;;5013994;28;20212;-64
2022/07/28 11:32:12;;;;;;;17.08;13.52;;;;;;;;;;5012634;28;20022;-64
2022/07/28 11:35:07;;;;;;;20.80;13.95;;;;;;;;;;5014587;28;20398;-62
2022/07/28 11:37:53;;;;;;;16.73;13.27;;;;;;;;;;4993494;28;20096;-64
2022/07/28 11:40:29;;;;;;;17.58;13.82;;;;;;;;;;4994230;28;20113;-64
2022/07/28 11:43:15;;;;;;;16.35;14.02;;;;;;;;;;4996064;28;20045;-62
2022/07/28 11:45:41;;;;;;;17.85;13.75;;;;;;;;;;4994537;28;20071;-64
2022/07/28 11:48:16;;;;;;;15.85;13.80;;;;;;;;;;4995803;28;20390;-65
2022/07/28 11:50:43;;;;;;;18.50;14.40;;;;;;;;;;4995213;28;20386;-62
2022/07/28 11:53:11;;;;;;;17.45;14.23;;;;;;;;;;4995686;28;20070;-62
2022/07/28 11:55:37;;;;;;;18.45;14.32;;;;;;;;;;4996458;28;20026;-63
2022/07/28 11:58:05;;;;;;;16.88;14.05;;;;;;;;;;4995051;28;20022;-64
2022/07/28 12:00:31;;;;;;;19.17;13.93;;;;;;;;;;4995919;28;20030;-64
2022/07/28 12:02:59;;;;;;;18.08;14.07;;;;;;;;;;4995089;28;20260;-64
2022/07/28 12:05:25;;;;;;;27.83;15.93;;;;;;;;;;4998672;28;20080;-62
2022/07/28 12:07:51;;;;;;;16.25;13.50;;;;;;;;;;5005816;28;20100;-59
2022/07/28 12:10:31;;;;;;;20.35;15.15;;;;;;;;;;4995341;28;20088;-61
2022/07/28 12:12:59;;;;;;;19.30;14.30;;;;;;;;;;4995485;28;20634;-59
2022/07/28 12:15:25;;;;;;;17.65;13.70;;;;;;;;;;4996024;28;20495;-62
2022/07/28 12:17:52;;;;;;;18.27;13.85;;;;;;;;;;5007295;28;20034;-62
2022/07/28 12:20:18;;;;;;;17.65;13.60;;;;;;;;;;5015396;28;20022;-62
2022/07/28 12:22:54;;;;;;;17.67;13.68;;;;;;;;;;5015697;28;20025;-60
2022/07/28 12:25:20;;;;;;;16.83;13.80;;;;;;;;;;5015793;28;20030;-59
2022/07/28 12:27:46;;;;;;;17.20;13.88;;;;;;;;;;5015334;28;20056;-62
2022/07/28 12:30:12;;;;;;;17.92;13.65;;;;;;;;;;5016313;28;20105;-61
2022/07/28 12:32:38;;;;;;;20.00;13.75;;;;;;;;;;5016038;28;20034;-63
2022/07/28 12:35:04;;;;;;;17.92;13.82;;;;;;;;;;5015842;28;20510;-62
2022/07/28 12:37:30;;;;;;;17.27;13.57;;;;;;;;;;5015182;28;20551;-64
2022/07/28 12:39:56;;;;;;;17.40;13.77;;;;;;;;;;5015714;28;20113;-63
2022/07/28 12:42:24;;;;;;;19.20;14.35;;;;;;;;;;5017226;28;20036;-63
2022/07/28 12:44:52;;;;;;;18.50;14.25;;;;;;;;;;5017218;28;20478;-64
2022/07/28 12:47:25;;;;;;;15.95;13.60;;;;;;;;;;5016148;28;20033;-63
2022/07/28 12:50:07;;;;;;;18.52;14.48;;;;;;;;;;5016246;28;20026;-62
2022/07/28 12:52:33;;;;;;;16.83;14.15;;;;;;;;;;5015674;28;20386;-64
2022/07/28 12:54:59;;;;;;;21.38;14.07;;;;;;;;;;5017190;28;20045;-64
2022/07/28 12:57:40;;;;;;;17.25;13.80;;;;;;;;;;5015889;28;20038;-60
2022/07/28 13:00:07;;;;;;;17.35;13.88;;;;;;;;;;5016515;28;20030;-63
2022/07/28 13:02:36;;;;;;;16.92;13.90;;;;;;;;;;4665941;28;9999852;-63
2022/07/28 13:05:04;;;;;;;17.67;13.93;;;;;;;;;;5013122;28;20097;-62
2022/07/28 13:07:31;;;;;;;17.77;13.75;;;;;;;;;;5013471;28;20026;-63
2022/07/28 13:10:05;;;;;;;17.60;14.27;;;;;;;;;;5011605;28;20158;-60
2022/07/28 13:12:31;;;;;;;19.38;14.60;;;;;;;;;;5013264;28;20508;-62
2022/07/28 13:14:59;;;;;;;17.83;14.32;;;;;;;;;;5012439;28;20490;-61
2022/07/28 13:17:29;;;;;;;19.52;14.80;;;;;;;;;;5013065;28;20072;-64
2022/07/28 13:20:05;;;;;;;18.17;14.70;;;;;;;;;;5002161;28;20028;-61
2022/07/28 13:22:32;;;;;;;17.23;14.48;;;;;;;;;;4992378;28;20462;-60
2022/07/28 13:24:58;;;;;;;18.15;14.30;;;;;;;;;;4991955;28;20030;-63
2022/07/28 13:27:28;;;;;;;17.00;14.27;;;;;;;;;;4992595;28;20057;-59
2022/07/28 13:29:54;;;;;;;19.13;14.43;;;;;;;;;;4993371;28;20030;-61
2022/07/28 13:32:20;;;;;;;17.83;13.95;;;;;;;;;;4993728;28;20034;-64
2022/07/28 13:34:47;;;;;;;16.83;13.80;;;;;;;;;;4995050;28;20034;-63
2022/07/28 13:37:13;;;;;;;17.70;14.25;;;;;;;;;;5000078;28;20018;-63
2022/07/28 13:39:39;;;;;;;17.45;14.05;;;;;;;;;;4994940;28;20061;-62
2022/07/28 13:42:06;;;;;;;19.00;14.68;;;;;;;;;;4999661;28;20054;-63
2022/07/28 13:44:33;;;;;;;18.73;14.25;;;;;;;;;;5000103;28;20041;-62
2022/07/28 13:46:59;;;;;;;18.85;14.27;;;;;;;;;;4997476;28;20030;-65
2022/07/28 13:49:26;;;;;;;17.67;14.10;;;;;;;;;;4997294;28;20166;-60
2022/07/28 13:51:52;;;;;;;17.95;14.10;;;;;;;;;;4666106;28;10000433;-62
2022/07/28 13:54:19;;;;;;;16.90;13.90;;;;;;;;;;5015927;28;20014;-63
2022/07/28 13:56:45;;;;;;;17.17;14.35;;;;;;;;;;5016887;28;20099;-63
2022/07/28 13:59:12;;;;;;;16.67;13.55;;;;;;;;;;5015757;28;20026;-63
2022/07/28 14:01:39;;;;;;;17.10;13.90;;;;;;;;;;4671271;28;10000117;-62
2022/07/28 14:04:06;;;;;;;18.65;14.57;;;;;;;;;;5018961;28;20064;-62
2022/07/28 14:06:33;;;;;;;17.08;14.35;;;;;;;;;;5019226;28;20118;-61
2022/07/28 14:08:59;;;;;;;17.08;14.90;;;;;;;;;;5019833;28;20048;-58
2022/07/28 14:11:25;;;;;;;17.80;14.63;;;;;;;;;;5020869;28;20029;-62
2022/07/28 14:13:51;;;;;;;18.80;14.82;;;;;;;;;;5021085;28;20057;-60
2022/07/28 14:16:18;;;;;;;18.15;14.48;;;;;;;;;;5020570;28;20026;-62
2022/07/28 14:18:44;;;;;;;17.75;14.38;;;;;;;;;;5021245;28;20033;-64
2022/07/28 14:21:10;;;;;;;19.13;15.10;;;;;;;;;;5019547;28;20029;-62